createdAt,value
2024-04-24T00:02:05.139Z,2.25
2024-04-24T00:04:37.380Z,3.95
2024-04-24T00:07:04.398Z,1.83
2024-04-24T00:09:34.000Z,2.60
2024-04-24T00:12:03.742Z,1.42
2024-04-24T00:14:33.439Z,1.23
2024-04-24T00:17:05.172Z,1.50
2024-04-24T00:19:37.565Z,2.30
2024-04-24T00:22:07.179Z,1.60
2024-04-24T00:24:36.802Z,2.95
2024-04-24T00:27:06.925Z,1.10
2024-04-24T00:29:36.799Z,1.10
2024-04-24T00:32:08.646Z,1.75
2024-04-24T00:34:40.956Z,2.35
2024-04-24T00:37:10.562Z,1.83
2024-04-24T00:39:40.180Z,1.35
2024-04-24T00:42:09.807Z,2.17
2024-04-24T00:44:39.438Z,1.20
2024-04-24T00:47:09.171Z,1.77
2024-04-24T00:49:41.423Z,1.80
2024-04-24T00:52:11.275Z,1.73
2024-04-24T00:54:40.914Z,1.23
2024-04-24T00:57:10.513Z,1.75
2024-04-24T00:59:40.121Z,1.40
2024-04-24T01:02:09.767Z,3.03
2024-04-24T01:04:42.072Z,3.70
2024-04-24T01:07:11.670Z,1.55
2024-04-24T01:09:41.301Z,1.55
2024-04-24T01:12:11.099Z,2.05
2024-04-24T01:14:40.770Z,2.53
2024-04-24T01:17:10.416Z,2.47
2024-04-24T01:19:55.364Z,1.67
2024-04-24T01:22:38.996Z,2.15
2024-04-24T01:25:10.905Z,1.08
2024-04-24T01:27:43.141Z,1.38
2024-04-24T01:30:13.338Z,2.15
2024-04-24T01:32:43.094Z,1.00
2024-04-24T01:35:15.721Z,3.63
2024-04-24T01:37:48.064Z,1.67
2024-04-24T01:40:17.713Z,1.80
2024-04-24T01:42:50.031Z,1.00
2024-04-24T01:45:19.808Z,1.42
2024-04-24T01:47:49.505Z,3.75
2024-04-24T01:50:19.405Z,1.23
2024-04-24T01:52:55.013Z,1.80
2024-04-24T01:55:25.909Z,1.15
2024-04-24T01:57:58.143Z,0.70
2024-04-24T02:00:27.854Z,0.55
2024-04-24T02:02:58.096Z,1.38
2024-04-24T02:05:27.800Z,2.83
2024-04-24T02:07:57.511Z,2.53
2024-04-24T02:10:27.142Z,1.20
2024-04-24T02:12:59.472Z,2.78
2024-04-24T02:15:29.265Z,0.82
2024-04-24T02:18:02.062Z,1.05
2024-04-24T02:20:34.433Z,1.75
2024-04-24T02:23:05.816Z,1.25
2024-04-24T02:25:35.661Z,1.20
2024-04-24T02:28:10.565Z,1.80
2024-04-24T02:30:41.383Z,1.67
2024-04-24T02:33:11.185Z,1.73
2024-04-24T02:35:40.915Z,1.55
2024-04-24T02:38:10.637Z,1.75
2024-04-24T02:40:40.292Z,1.25
2024-04-24T02:43:12.518Z,3.95
2024-04-24T02:45:42.160Z,2.58
2024-04-24T02:48:11.987Z,1.35
2024-04-24T02:50:41.686Z,1.80
2024-04-24T02:53:11.345Z,0.98
2024-04-24T02:55:41.093Z,2.00
2024-04-24T02:58:13.602Z,2.75
2024-04-24T03:00:43.225Z,2.03
2024-04-24T03:03:13.042Z,2.75
2024-04-24T03:05:46.968Z,4.13
2024-04-24T03:08:19.138Z,1.52
2024-04-24T03:10:51.533Z,1.48
2024-04-24T03:13:23.815Z,1.27
2024-04-24T03:16:05.784Z,1.27
2024-04-24T03:18:35.520Z,1.83
2024-04-24T03:21:05.173Z,1.75
2024-04-24T03:23:34.849Z,3.35
2024-04-24T03:26:12.955Z,1.23
2024-04-24T03:28:47.019Z,1.60
2024-04-24T03:31:19.634Z,1.08
2024-04-24T03:33:51.860Z,1.35
2024-04-24T03:36:21.519Z,1.15
2024-04-24T03:38:51.323Z,1.23
2024-04-24T03:41:21.027Z,2.20
2024-04-24T03:43:53.408Z,2.08
2024-04-24T03:46:23.032Z,2.13
2024-04-24T03:48:50.100Z,1.17
2024-04-24T03:51:19.833Z,2.22
2024-04-24T03:53:54.285Z,1.48
2024-04-24T03:56:24.535Z,2.97
2024-04-24T03:58:56.877Z,2.72
2024-04-24T04:01:28.929Z,1.67
2024-04-24T04:04:00.755Z,1.30
2024-04-24T04:06:34.714Z,1.00
2024-04-24T04:09:04.475Z,1.15
2024-04-24T04:11:34.281Z,1.10
2024-04-24T04:14:06.771Z,0.90
2024-04-24T04:16:33.827Z,1.10
2024-04-24T04:19:03.580Z,1.70
2024-04-24T04:21:33.372Z,1.27
2024-04-24T04:24:02.983Z,1.95
2024-04-24T04:26:30.038Z,2.70
2024-04-24T04:28:59.748Z,1.23
2024-04-24T04:31:32.135Z,1.60
2024-04-24T04:34:01.778Z,1.67
2024-04-24T04:36:31.562Z,4.13
2024-04-24T04:39:01.308Z,1.70
2024-04-24T04:41:30.919Z,1.95
2024-04-24T04:44:01.924Z,2.50
2024-04-24T04:46:34.172Z,2.25
2024-04-24T04:49:06.129Z,2.17
2024-04-24T04:51:35.766Z,1.48
2024-04-24T04:54:05.373Z,2.17
2024-04-24T04:56:34.983Z,1.88
2024-04-24T04:59:04.652Z,2.25
2024-04-24T05:01:37.138Z,1.25
2024-04-24T05:04:06.896Z,1.63
2024-04-24T05:06:36.560Z,2.38
2024-04-24T05:09:06.306Z,2.58
2024-04-24T05:11:35.986Z,1.42
2024-04-24T05:14:05.808Z,0.90
2024-04-24T05:16:39.245Z,3.13
2024-04-24T05:19:08.923Z,1.73
2024-04-24T05:21:38.676Z,2.15
2024-04-24T05:24:08.696Z,3.22
2024-04-24T05:26:54.392Z,1.40
2024-04-24T05:29:24.085Z,2.22
2024-04-24T05:31:56.485Z,1.05
2024-04-24T05:34:27.788Z,2.85
2024-04-24T05:36:58.307Z,2.45
2024-04-24T05:39:28.123Z,1.48
2024-04-24T05:41:57.729Z,2.80
2024-04-24T05:44:29.080Z,1.48
2024-04-24T05:47:01.436Z,1.63
2024-04-24T05:49:31.145Z,4.00
2024-04-24T05:52:01.518Z,1.42
2024-04-24T05:54:32.107Z,3.25
2024-04-24T05:57:04.699Z,3.25
2024-04-24T05:59:34.405Z,3.28
2024-04-24T06:02:06.899Z,4.47
2024-04-24T06:04:36.690Z,2.40
2024-04-24T06:07:06.392Z,2.53
2024-04-24T06:09:37.228Z,3.35
2024-04-24T06:12:07.001Z,2.30
2024-04-24T06:14:36.889Z,3.08
2024-04-24T06:17:09.288Z,3.17
2024-04-24T06:19:39.098Z,2.78
2024-04-24T06:22:11.362Z,2.83
2024-04-24T06:24:41.005Z,4.15
2024-04-24T06:27:11.518Z,3.30
2024-04-24T06:29:41.147Z,4.95
2024-04-24T06:32:14.941Z,5.70
2024-04-24T06:34:44.789Z,3.15
2024-04-24T06:37:14.603Z,4.68
2024-04-24T06:39:44.893Z,2.50
2024-04-24T06:42:15.264Z,3.67
2024-04-24T06:44:45.058Z,4.25
2024-04-24T06:47:17.461Z,2.33
2024-04-24T06:49:47.108Z,2.97
2024-04-24T06:52:16.739Z,6.05
2024-04-24T06:54:46.434Z,2.50
2024-04-24T06:57:17.773Z,4.50
2024-04-24T06:59:50.527Z,5.00
2024-04-24T07:02:30.437Z,4.93
2024-04-24T07:05:00.990Z,5.00
2024-04-24T07:07:30.786Z,5.15
2024-04-24T07:10:00.595Z,4.13
2024-04-24T07:12:30.291Z,3.45
2024-04-24T07:14:59.881Z,5.28
2024-04-24T07:17:36.051Z,7.05
2024-04-24T07:20:06.478Z,7.00
2024-04-24T07:22:36.193Z,4.32
2024-04-24T07:25:05.951Z,6.97
2024-04-24T07:27:35.581Z,6.35
2024-04-24T07:30:09.103Z,9.45
2024-04-24T07:32:42.098Z,4.47
2024-04-24T07:35:11.971Z,6.25
2024-04-24T07:37:41.666Z,5.03
2024-04-24T07:40:11.712Z,15.77
2024-04-24T07:42:47.686Z,3.83
2024-04-24T07:45:17.500Z,4.60
2024-04-24T07:48:02.193Z,5.22
2024-04-24T07:50:34.812Z,7.72
2024-04-24T07:53:04.511Z,3.58
2024-04-24T07:55:34.155Z,7.55
2024-04-24T07:58:07.050Z,3.92
2024-04-24T08:00:42.905Z,3.47
2024-04-24T08:03:16.959Z,2.08
2024-04-24T08:05:49.221Z,2.90
2024-04-24T08:08:18.970Z,3.05
2024-04-24T08:10:48.868Z,3.47
2024-04-24T08:13:20.327Z,2.08
2024-04-24T08:15:54.727Z,3.65
2024-04-24T08:18:29.394Z,3.00
2024-04-24T08:21:00.731Z,4.35
2024-04-24T08:23:32.931Z,5.13
2024-04-24T08:26:04.243Z,3.67
2024-04-24T08:28:40.623Z,2.83
2024-04-24T08:31:11.215Z,2.03
2024-04-24T08:33:43.517Z,4.05
2024-04-24T08:36:16.022Z,2.58
2024-04-24T08:38:45.677Z,3.35
2024-04-24T08:41:15.682Z,3.65
2024-04-24T08:43:45.665Z,3.97
2024-04-24T08:46:16.541Z,1.02
2024-04-24T08:48:48.810Z,2.42
2024-04-24T08:51:18.492Z,2.58
2024-04-24T08:53:48.738Z,3.63
2024-04-24T08:56:19.428Z,1.25
2024-04-24T08:58:49.195Z,1.00
2024-04-24T09:01:18.846Z,1.52
2024-04-24T09:03:53.382Z,1.95
2024-04-24T09:06:23.124Z,3.55
2024-04-24T09:08:55.388Z,3.10
2024-04-24T09:11:25.103Z,1.00
2024-04-24T09:13:54.870Z,0.77
2024-04-24T09:16:27.480Z,1.58
2024-04-24T09:19:05.948Z,3.33
2024-04-24T09:21:35.726Z,2.45
2024-04-24T09:24:05.674Z,2.03
2024-04-24T09:26:35.367Z,4.28
2024-04-24T09:29:05.382Z,1.35
2024-04-24T09:31:36.092Z,4.63
2024-04-24T09:34:09.945Z,1.58
2024-04-24T09:36:43.385Z,3.00
2024-04-24T09:39:15.861Z,2.72
2024-04-24T09:41:45.614Z,2.05
2024-04-24T09:44:16.667Z,2.78
2024-04-24T09:46:52.080Z,3.33
2024-04-24T09:49:24.413Z,1.48
2024-04-24T09:51:54.268Z,1.60
2024-04-24T09:54:25.166Z,2.88
2024-04-24T09:56:57.393Z,4.25
2024-04-24T09:59:30.800Z,3.58
2024-04-24T10:02:02.392Z,2.90
2024-04-24T10:04:34.924Z,2.35
2024-04-24T10:07:04.888Z,1.85
2024-04-24T10:09:34.992Z,5.53
2024-04-24T10:12:06.370Z,1.70
2024-04-24T10:14:36.592Z,2.15
2024-04-24T10:17:06.390Z,0.90
2024-04-24T10:19:38.788Z,1.00
2024-04-24T10:22:11.296Z,3.15
2024-04-24T10:24:40.963Z,3.47
2024-04-24T10:27:13.608Z,2.55
2024-04-24T10:29:44.887Z,4.53
2024-04-24T10:32:14.646Z,1.83
2024-04-24T10:34:46.998Z,2.17
2024-04-24T10:37:16.609Z,2.00
2024-04-24T10:39:49.423Z,3.33
2024-04-24T10:42:19.861Z,2.83
2024-04-24T10:44:49.552Z,1.75
2024-04-24T10:47:20.024Z,3.65
2024-04-24T10:49:58.881Z,2.17
2024-04-24T10:52:28.570Z,1.40
2024-04-24T10:54:58.505Z,1.73
2024-04-24T10:57:34.634Z,4.53
2024-04-24T11:00:13.303Z,2.15
2024-04-24T11:02:47.927Z,2.72
2024-04-24T11:05:20.546Z,1.15
2024-04-24T11:07:59.610Z,1.63
2024-04-24T11:10:26.712Z,1.10
2024-04-24T11:12:56.538Z,1.50
2024-04-24T11:15:26.715Z,2.97
2024-04-24T11:17:56.673Z,1.45
2024-04-24T11:20:32.362Z,3.58
2024-04-24T11:23:09.021Z,1.67
2024-04-24T11:25:48.454Z,1.48
2024-04-24T11:28:22.735Z,2.45
2024-04-24T11:30:52.397Z,3.88
2024-04-24T11:33:22.331Z,4.93
2024-04-24T11:35:55.041Z,2.97
2024-04-24T11:38:24.843Z,2.65
2024-04-24T11:40:54.602Z,8.18
2024-04-24T11:43:24.236Z,3.10
2024-04-24T11:45:53.929Z,1.35
2024-04-24T11:48:36.768Z,3.33
2024-04-24T11:51:17.839Z,1.75
2024-04-24T11:53:49.361Z,2.58
2024-04-24T11:56:27.092Z,0.88
2024-04-24T11:58:58.515Z,1.92
2024-04-24T12:01:30.928Z,2.60
2024-04-24T12:04:00.993Z,2.42
2024-04-24T12:06:40.886Z,1.30
2024-04-24T12:09:11.657Z,0.80
2024-04-24T12:11:41.706Z,3.72
2024-04-24T12:14:14.377Z,4.22
2024-04-24T12:16:44.028Z,2.45
2024-04-24T12:19:14.594Z,1.15
2024-04-24T12:21:48.334Z,1.40
2024-04-24T12:24:17.957Z,3.10
2024-04-24T12:26:47.635Z,2.92
2024-04-24T12:29:17.418Z,3.78
2024-04-24T12:31:49.024Z,2.63
2024-04-24T12:34:20.356Z,4.03
2024-04-24T12:36:55.182Z,4.28
2024-04-24T12:39:24.828Z,3.95
2024-04-24T12:41:54.537Z,5.00
2024-04-24T12:44:24.435Z,5.43
2024-04-24T12:46:56.987Z,4.07
2024-04-24T12:49:26.625Z,4.00
2024-04-24T12:51:59.580Z,4.90
2024-04-24T12:54:29.716Z,9.65
2024-04-24T12:56:59.350Z,6.63
2024-04-24T12:59:29.208Z,11.02
2024-04-24T13:02:01.939Z,5.63
2024-04-24T13:04:31.790Z,16.65
2024-04-24T13:07:06.875Z,5.60
2024-04-24T13:09:37.925Z,4.82
2024-04-24T13:12:07.846Z,4.63
2024-04-24T13:14:37.538Z,5.88
2024-04-24T13:17:09.149Z,6.22
2024-04-24T13:19:39.097Z,5.05
2024-04-24T13:22:11.528Z,7.88
2024-04-24T13:24:41.249Z,4.45
2024-04-24T13:27:10.950Z,4.28
2024-04-24T13:29:42.167Z,8.10
2024-04-24T13:32:11.959Z,3.05
2024-04-24T13:34:41.639Z,8.40
2024-04-24T13:37:13.988Z,4.28
2024-04-24T13:39:43.594Z,3.72
2024-04-24T13:42:13.287Z,5.05
2024-04-24T13:44:46.574Z,4.00
2024-04-24T13:47:16.317Z,5.40
2024-04-24T13:49:46.056Z,4.68
2024-04-24T13:52:18.295Z,5.95
2024-04-24T13:54:49.943Z,5.80
2024-04-24T13:57:19.662Z,3.33
2024-04-24T13:59:49.353Z,3.03
2024-04-24T14:02:19.063Z,2.90
2024-04-24T14:04:48.741Z,6.10
2024-04-24T14:07:20.995Z,5.20
2024-04-24T14:09:50.647Z,12.30
2024-04-24T14:12:20.265Z,6.50
2024-04-24T14:14:49.998Z,1.52
2024-04-24T14:17:19.669Z,6.32
2024-04-24T14:19:49.394Z,5.30
2024-04-24T14:22:21.637Z,9.05
2024-04-24T14:24:51.467Z,5.43
2024-04-24T14:27:21.735Z,4.95
2024-04-24T14:29:52.036Z,3.20
2024-04-24T14:32:19.178Z,3.10
2024-04-24T14:34:49.926Z,5.30
2024-04-24T14:37:22.186Z,3.08
2024-04-24T14:39:51.818Z,3.22
2024-04-24T14:42:22.327Z,5.97
2024-04-24T14:44:51.967Z,6.50
2024-04-24T14:47:21.672Z,2.92
2024-04-24T14:49:51.528Z,3.92
2024-04-24T14:52:23.814Z,3.88
2024-04-24T14:54:54.023Z,3.60
2024-04-24T14:57:26.509Z,4.55
2024-04-24T14:59:56.342Z,2.50
2024-04-24T15:02:25.997Z,2.03
2024-04-24T15:04:55.657Z,5.97
2024-04-24T15:07:30.774Z,3.30
2024-04-24T15:10:00.424Z,3.50
2024-04-24T15:12:30.780Z,2.85
2024-04-24T15:15:00.533Z,11.32
2024-04-24T15:17:30.282Z,4.72
2024-04-24T15:20:02.937Z,7.63
2024-04-24T15:22:35.355Z,1.63
2024-04-24T15:25:05.021Z,4.35
2024-04-24T15:27:35.223Z,0.90
2024-04-24T15:30:04.873Z,3.42
2024-04-24T15:32:34.766Z,3.60
2024-04-24T15:35:08.333Z,3.53
2024-04-24T15:37:40.732Z,9.07
2024-04-24T15:40:11.190Z,5.22
2024-04-24T15:42:40.882Z,7.20
2024-04-24T15:45:11.244Z,15.23
2024-04-24T15:47:42.467Z,12.30
2024-04-24T15:50:14.809Z,36.03
2024-04-24T15:52:47.142Z,54.70
2024-04-24T15:55:16.948Z,62.65
2024-04-24T15:57:46.576Z,40.08
2024-04-24T16:00:19.392Z,54.08
2024-04-24T16:02:50.644Z,51.10
2024-04-24T16:05:20.443Z,35.22
2024-04-24T16:07:58.246Z,39.65
2024-04-24T16:10:27.917Z,25.13
2024-04-24T16:12:58.094Z,41.40
2024-04-24T16:15:27.781Z,38.17
2024-04-24T16:17:57.869Z,33.83
2024-04-24T16:20:28.210Z,26.77
2024-04-24T16:23:00.702Z,32.78
2024-04-24T16:25:30.584Z,35.03
2024-04-24T16:28:03.232Z,21.13
2024-04-24T16:30:33.527Z,19.92
2024-04-24T16:33:03.269Z,27.98
2024-04-24T16:35:33.374Z,16.65
2024-04-24T16:38:05.830Z,24.45
2024-04-24T16:40:35.857Z,20.52
2024-04-24T16:43:05.515Z,18.48
2024-04-24T16:45:35.257Z,15.02
2024-04-24T16:48:05.285Z,16.13
2024-04-24T16:50:35.094Z,16.52
2024-04-24T16:53:07.577Z,12.15
2024-04-24T16:55:37.269Z,10.00
2024-04-24T16:58:07.222Z,12.90
2024-04-24T17:00:36.897Z,11.95
2024-04-24T17:03:04.296Z,13.75
2024-04-24T17:05:34.041Z,12.45
2024-04-24T17:08:03.958Z,13.48
2024-04-24T17:10:39.551Z,13.80
2024-04-24T17:13:09.329Z,9.60
2024-04-24T17:15:41.477Z,9.95
2024-04-24T17:18:11.634Z,7.85
2024-04-24T17:20:43.873Z,12.68
2024-04-24T17:23:33.841Z,12.57
2024-04-24T17:26:06.317Z,21.17
2024-04-24T17:28:36.135Z,7.72
2024-04-24T17:31:05.819Z,10.10
2024-04-24T17:33:37.979Z,10.45
2024-04-24T17:36:12.498Z,9.65
2024-04-24T17:38:42.215Z,11.68
2024-04-24T17:41:14.578Z,10.00
2024-04-24T17:43:44.229Z,9.98
2024-04-24T17:46:14.622Z,12.98
2024-04-24T17:48:44.334Z,4.68
2024-04-24T17:51:14.048Z,7.00
2024-04-24T17:53:43.724Z,8.45
2024-04-24T17:56:15.987Z,5.88
2024-04-24T17:58:45.645Z,5.43
2024-04-24T18:01:16.293Z,8.02
2024-04-24T18:03:46.651Z,4.35
2024-04-24T18:06:16.507Z,5.45
2024-04-24T18:08:46.141Z,4.43
2024-04-24T18:11:20.390Z,7.40
2024-04-24T18:13:50.194Z,5.03
2024-04-24T18:16:19.966Z,5.78
2024-04-24T18:18:49.609Z,5.47
2024-04-24T18:21:19.254Z,3.60
2024-04-24T18:23:48.856Z,3.47
2024-04-24T18:26:21.152Z,4.32
2024-04-24T18:28:50.794Z,4.18
2024-04-24T18:31:20.446Z,5.15
2024-04-24T18:33:50.077Z,4.90
2024-04-24T18:36:19.935Z,2.55
2024-04-24T18:38:52.429Z,4.75
2024-04-24T18:41:27.262Z,4.18
2024-04-24T18:44:00.917Z,3.80
2024-04-24T18:46:33.350Z,3.35
2024-04-24T18:49:03.123Z,4.90
2024-04-24T18:51:33.569Z,5.82
2024-04-24T18:54:03.210Z,4.85
2024-04-24T18:56:35.550Z,6.72
2024-04-24T18:59:05.383Z,4.25
2024-04-24T19:01:36.580Z,3.53
2024-04-24T19:04:13.000Z,2.42
2024-04-24T19:06:42.945Z,3.95
2024-04-24T19:09:12.986Z,3.30
2024-04-24T19:11:46.663Z,3.17
2024-04-24T19:14:16.769Z,5.05
2024-04-24T19:16:46.701Z,4.72
2024-04-24T19:19:17.752Z,3.35
2024-04-24T19:21:47.492Z,3.38
2024-04-24T19:24:17.359Z,3.50
2024-04-24T19:26:47.081Z,4.07
2024-04-24T19:29:16.853Z,2.47
2024-04-24T19:31:48.271Z,2.42
2024-04-24T19:34:17.918Z,3.38
2024-04-24T19:36:47.584Z,2.85
2024-04-24T19:39:17.898Z,3.25
2024-04-24T19:41:52.525Z,2.92
2024-04-24T19:44:22.237Z,4.22
2024-04-24T19:46:52.186Z,2.03
2024-04-24T19:49:21.856Z,3.13
2024-04-24T19:51:51.510Z,2.55
2024-04-24T19:54:25.987Z,2.63
2024-04-24T19:56:58.234Z,3.42
2024-04-24T19:59:27.973Z,4.05
2024-04-24T20:01:58.724Z,2.63
2024-04-24T20:04:28.880Z,2.35
2024-04-24T20:06:59.333Z,4.88
2024-04-24T20:09:28.974Z,6.10
2024-04-24T20:12:01.459Z,2.47
2024-04-24T20:14:31.200Z,3.70
2024-04-24T20:17:00.912Z,3.70
2024-04-24T20:19:34.071Z,4.68
2024-04-24T20:22:04.246Z,7.35
2024-04-24T20:24:48.937Z,2.25
2024-04-24T20:27:21.180Z,3.22
2024-04-24T20:29:50.917Z,2.78
2024-04-24T20:32:20.684Z,5.38
2024-04-24T20:34:50.299Z,5.78
2024-04-24T20:37:19.954Z,5.18
2024-04-24T20:39:49.609Z,4.00
2024-04-24T20:42:24.895Z,4.32
2024-04-24T20:44:55.277Z,4.13
2024-04-24T20:47:24.954Z,4.78
2024-04-24T20:49:52.013Z,2.95
2024-04-24T20:52:21.636Z,4.47
2024-04-24T20:54:53.861Z,5.00
2024-04-24T20:57:29.051Z,3.45
2024-04-24T21:00:23.291Z,5.72
2024-04-24T21:02:52.963Z,4.97
2024-04-24T21:05:22.936Z,4.95
2024-04-24T21:07:52.573Z,4.38
2024-04-24T21:10:25.111Z,2.22
2024-04-24T21:12:57.365Z,4.22
2024-04-24T21:15:27.047Z,2.53
2024-04-24T21:17:56.806Z,7.75
2024-04-24T21:20:27.289Z,3.03
2024-04-24T21:22:56.962Z,5.88
2024-04-24T21:25:26.753Z,4.95
2024-04-24T21:28:03.009Z,3.78
2024-04-24T21:30:32.817Z,1.70
2024-04-24T21:33:02.533Z,2.20
2024-04-24T21:35:32.281Z,5.70
2024-04-24T21:38:01.985Z,3.25
2024-04-24T21:40:31.641Z,3.70
2024-04-24T21:43:08.932Z,4.93
2024-04-24T21:45:39.772Z,7.65
2024-04-24T21:48:09.684Z,4.55
2024-04-24T21:50:39.358Z,4.35
2024-04-24T21:53:10.707Z,2.35
2024-04-24T21:55:40.414Z,4.05
2024-04-24T21:58:12.650Z,6.32
2024-04-24T22:00:42.301Z,2.88
2024-04-24T22:03:11.946Z,2.05
2024-04-24T22:05:42.993Z,3.67
2024-04-24T22:08:12.736Z,2.13
2024-04-24T22:10:42.373Z,3.72
2024-04-24T22:13:14.709Z,4.75
2024-04-24T22:15:44.362Z,2.42
2024-04-24T22:18:14.256Z,2.10
2024-04-24T22:20:49.960Z,3.15
2024-04-24T22:23:24.598Z,6.30
2024-04-24T22:25:57.090Z,2.35
2024-04-24T22:28:29.482Z,5.97
2024-04-24T22:30:59.095Z,3.05
2024-04-24T22:33:28.843Z,5.00
2024-04-24T22:35:58.503Z,4.57
2024-04-24T22:38:28.121Z,4.90
2024-04-24T22:40:57.789Z,3.53
2024-04-24T22:43:30.288Z,4.72
2024-04-24T22:45:59.916Z,1.73
2024-04-24T22:48:32.185Z,5.97
2024-04-24T22:51:01.854Z,5.40
2024-04-24T22:53:31.583Z,4.18
2024-04-24T22:56:01.296Z,3.33
2024-04-24T22:58:33.499Z,3.80
2024-04-24T23:01:00.568Z,2.15
2024-04-24T23:03:30.894Z,3.47
2024-04-24T23:06:00.554Z,3.95
2024-04-24T23:08:31.588Z,5.80
2024-04-24T23:11:01.244Z,1.20
2024-04-24T23:13:33.503Z,1.75
2024-04-24T23:16:03.161Z,1.10
2024-04-24T23:18:33.639Z,2.17
2024-04-24T23:21:03.387Z,3.38
2024-04-24T23:23:33.963Z,1.90
2024-04-24T23:26:04.547Z,3.47
2024-04-24T23:28:36.852Z,0.88
2024-04-24T23:31:09.572Z,3.80
2024-04-24T23:33:39.604Z,2.42
2024-04-24T23:36:11.876Z,2.13
2024-04-24T23:38:41.576Z,1.67
2024-04-24T23:41:15.198Z,1.48
2024-04-24T23:43:47.719Z,1.13
2024-04-24T23:46:21.495Z,1.00
2024-04-24T23:48:52.353Z,2.03
2024-04-24T23:51:22.024Z,2.03
2024-04-24T23:53:51.672Z,2.60
2024-04-24T23:56:21.310Z,1.35
2024-04-24T23:58:54.766Z,2.08
